Hovedside
METAR-TAF:

METAR-TAF

Lufthavner :

Corvallis, Oregon, USA

breddegrad: 44-30N, lengdegrad: 123-17W, høyde over havet: 75 m

Gjeldene værobservasjon

Denne rapporten ble laget for 1 time og 12 minutter siden, klokken 01:56 UTC
Vind 11 kt fra Nord-nordøst
Temperatur 23°C
Luftfuktighet 57%
Trykk 1018 hPa
Sikt: 16.1 km
Skyfri himmel

METAR: KCVO 270156Z AUTO 03011KT 10SM CLR 23/14 A3006 RMK AO2 SLP178 T02280144

Tid: 20:08 (03:08 UTC)


TAF: fraværende

Værobservasjoner og værvarsel for over 4000 flyplasser (METAR- og TAF-rapporter).

Tilgjengelige stasjoner er representert av de røde og gule prikkene på kartet.

Hold musepekeren over prikken for å se navnet på stasjonen.

Klikk så for å se værobservasjoner og -varsler.

For å forandre kartet kan du klikke på den grønne knappen med svart kryss for å zoome inn, på den grønne knappen med strek for å zoome ut, eller på de grønne pilene for å se tilstøtende kart.


METAR-TAF: